Latest Coastal Weather Observations for Charles Point

IDD60701

Issued at 4:41 am CST Monday 15 February 2016 (issued every 10 minutes, with the page automatically refreshed every 10 minutes)

About coastal observations | Map of coastal stations | Coastal observations for NT | Marine services | Other Formats
Station Details ID: 014031 Name: CHARLES POINT Lat: -12.39 Lon: 130.63 Height: 14.0 m
Data from the previous 72 hours. | See also: Recent months for locations in Northern Territory
Date/Time
CST
Temp

°C
Wind Pressure Rain
since 9am
mm
Weather Cloud Vis
km
Sea
Height
m
Swell
Dir
 
Speed
knots
Gust
knots
hPa Trend Height
m
Period
s
Dir
15/04:30am 27.2 CALM 0 0 1007.7 - 0.0 - - - - - - -
15/04:00am 27.7 CALM 0 1 1007.6 - 0.0 - - - - - - -
15/03:30am 27.9 NNW 4 10 1007.4 - 0.0 - - - - - - -
15/03:00am 26.7 W 2 2 1008.1 - 0.0 - - - - - - -
15/02:30am 27.3 WNW 2 3 1008.2 - 0.0 - - - - - - -
15/02:00am 28.0 NW 4 6 1008.7 - 0.0 - - - - - - -
15/01:30am 28.2 NW 5 6 1009.1 - 0.0 - - - - - - -
15/01:00am 28.0 N 6 9 1009.6 - 0.0 - - - - - - -
15/12:30am 28.4 NNW 6 8 1009.9 - 0.0 - - - - - - -
15/12:00am 28.8 N 7 10 1010.2 - 0.0 - - - - - - -
 
Date/Time
CST
Temp

°C
Wind Pressure Rain
since 9am
mm
Weather Cloud Vis
km
Sea
Height
m
Swell
Dir
 
Speed
knots
Gust
knots
hPa Trend Height
m
Period
s
Dir
14/11:30pm 28.3 ENE 2 4 1010.5 - 0.0 - - - - - - -
14/11:00pm 28.0 NE 5 7 1010.8 - 0.0 - - - - - - -
14/10:30pm 26.6 ESE 7 11 1011.3 - 0.0 - - - - - - -
14/10:00pm 25.8 ESE 8 13 1011.6 - 0.0 - - - - - - -
14/09:30pm 26.4 ESE 11 20 1012.0 - 0.0 - - - - - - -
14/09:00pm 27.0 ESE 13 23 1012.2 - 0.0 - - - - - - -
14/08:30pm 27.2 ESE 16 26 1011.0 - 0.0 - - - - - - -
14/08:22pm 27.9 ESE 15 26 1010.8 - 0.0 - - - - - - -
14/08:00pm 28.4 S 3 8 1009.9 - 0.0 - - - - - - -
14/07:30pm 28.8 WSW 1 2 1008.0 - 0.0 - - - - - - -
14/07:00pm 29.2 SW 3 6 1008.2 - 0.0 - - - - - - -
14/06:30pm 29.8 WSW 4 8 1007.0 - 0.0 - - - - - - -
14/06:00pm 29.6 WSW 5 9 1006.0 - 0.0 - - - - - - -
14/05:30pm 30.0 WSW 6 11 1006.0 - 0.0 - - - - - - -
14/05:00pm 32.4 WSW 8 14 1006.7 - 0.0 - - - - - - -
14/04:30pm 31.8 WSW 7 14 1006.5 - 0.0 - - - - - - -
14/04:00pm 32.8 W 8 14 1006.1 - 0.0 - - - - - - -
14/03:30pm 32.2 WSW 7 13 1006.6 - 0.0 - - - - - - -
14/03:00pm 32.9 W 7 13 1006.9 - 0.0 - - - - - - -
14/02:30pm 32.9 WNW 9 14 1007.3 - 0.0 - - - - - - -
14/02:00pm 32.8 WNW 9 15 1007.6 - 0.0 - - - - - - -
14/01:30pm 32.7 W 8 11 1008.2 - 0.0 - - - - - - -
14/01:00pm 32.8 W 9 16 1008.5 - 0.0 - - - - - - -
14/12:30pm 33.0 W 7 11 1008.9 - 0.0 - - - - - - -
14/12:00pm 32.6 WSW 5 9 1009.2 - 0.0 - - - - - - -
14/11:30am 32.7 WSW 5 10 1009.3 - 0.0 - - - - - - -
14/11:00am 32.4 W 6 10 1009.4 - 0.0 - - - - - - -
14/10:30am 32.3 WSW 5 9 1009.3 - 0.0 - - - - - - -
14/10:00am 31.8 W 5 9 1009.4 - 0.0 - - - - - - -
14/09:30am 31.4 W 5 10 1009.4 - 0.0 - - - - - - -
14/09:00am 31.2 W 5 9 1009.2 - 0.0 - - - - - - -
14/08:30am 30.5 WNW 10 14 1008.5 - 0.0 - - - - - - -
14/08:00am 30.2 W 4 7 1008.7 - 0.0 - - - - - - -
14/07:30am 29.5 WSW 3 5 1008.4 - 0.0 - - - - - - -
14/07:00am 28.9 W 3 7 1008.1 - 0.0 - - - - - - -
14/06:30am 28.9 W 3 7 1008.0 - 0.0 - - - - - - -
14/06:00am 28.9 W 4 7 1007.7 - 0.0 - - - - - - -
14/05:30am 28.9 W 5 9 1007.5 - 0.0 - - - - - - -
14/05:00am 28.9 W 4 7 1007.0 - 0.0 - - - - - - -
14/04:30am 29.0 W 3 6 1006.9 - 0.0 - - - - - - -
14/04:00am 29.1 W 4 9 1007.0 - 0.0 - - - - - - -
14/03:30am 29.1 WSW 5 9 1007.0 - 0.0 - - - - - - -
14/03:00am 29.2 W 5 9 1007.2 - 0.0 - - - - - - -
14/02:30am 29.1 W 4 7 1007.4 - 0.0 - - - - - - -
14/02:00am 29.2 W 5 9 1007.7 - 0.0 - - - - - - -
14/01:30am 29.2 W 4 7 1008.4 - 0.0 - - - - - - -
14/01:00am 29.3 W 5 9 1008.9 - 0.0 - - - - - - -
14/12:30am 29.3 WSW 5 10 1009.3 - 0.0 - - - - - - -
14/12:00am 29.3 WSW 5 9 1009.5 - 0.0 - - - - - - -
 
Date/Time
CST
Temp

°C
Wind Pressure Rain
since 9am
mm
Weather Cloud Vis
km
Sea
Height
m
Swell
Dir
 
Speed
knots
Gust
knots
hPa Trend Height
m
Period
s
Dir
13/11:30pm 29.2 WSW 4 9 1009.5 - 0.0 - - - - - - -
13/11:00pm 28.8 W 4 7 1009.4 - 0.0 - - - - - - -
13/10:30pm 28.5 W 4 9 1009.4 - 0.0 - - - - - - -
13/10:00pm 28.7 WNW 6 9 1009.4 - 0.0 - - - - - - -
13/09:30pm 29.1 NW 8 10 1009.3 - 0.0 - - - - - - -
13/09:00pm 28.6 NNW 7 10 1009.3 - 0.0 - - - - - - -
13/08:30pm 27.1 ENE 4 7 1009.4 - 0.0 - - - - - - -
13/08:00pm 27.4 E 10 18 1009.8 - 0.0 - - - - - - -
13/07:30pm 29.8 WSW 4 10 1008.3 - 0.0 - - - - - - -
13/07:00pm 30.1 SW 5 9 1008.3 - 0.0 - - - - - - -
13/06:30pm 30.3 W 4 9 1007.5 - 0.0 - - - - - - -
13/06:00pm 30.7 W 7 13 1007.2 - 0.0 - - - - - - -
13/05:30pm 31.3 W 9 13 1007.0 - 0.0 - - - - - - -
13/05:00pm 31.0 W 6 10 1007.0 - 0.0 - - - - - - -
13/04:30pm 30.9 W 7 11 1007.0 - 0.0 - - - - - - -
13/04:00pm 31.2 W 8 13 1007.2 - 0.0 - - - - - - -
13/03:30pm 31.1 W 8 13 1007.3 - 0.0 - - - - - - -
13/03:00pm 31.3 W 9 13 1007.5 - 0.0 - - - - - - -
13/02:30pm 32.0 WNW 11 15 1007.6 - 0.0 - - - - - - -
13/02:00pm 32.0 WNW 9 14 1007.7 - 0.0 - - - - - - -
13/01:30pm 31.8 WNW 10 13 1008.0 - 0.0 - - - - - - -
13/01:00pm 31.9 WNW 7 11 1008.5 - 0.0 - - - - - - -
13/12:30pm 31.2 WNW 9 11 1008.8 - 0.0 - - - - - - -
13/12:00pm 30.6 WNW 7 9 1009.4 - 0.0 - - - - - - -
13/11:30am 31.5 WSW 3 5 1009.4 - 0.0 - - - - - - -
13/11:00am 31.0 SW 3 5 1009.9 - 0.0 - - - - - - -
13/10:30am 29.6 CALM 0 0 1010.0 - 0.0 - - - - - - -
13/10:00am 28.6 WNW 1 2 1010.1 - 0.0 - - - - - - -
13/09:30am 28.0 NW 3 8 1010.1 - 0.0 - - - - - - -
13/09:00am 28.0 N 8 11 1010.5 - 0.2 - - - - - - -
13/08:30am 27.8 N 5 9 1010.6 - 0.2 - - - - - - -
13/08:00am 28.6 SSE 5 10 1010.3 - 0.2 - - - - - - -
13/07:30am 29.8 WSW 4 8 1009.4 - 0.2 - - - - - - -
13/07:00am 29.8 WSW 4 9 1008.8 - 0.2 - - - - - - -
13/06:30am 29.7 SW 4 8 1008.5 - 0.2 - - - - - - -
13/06:00am 29.7 WSW 5 11 1007.6 - 0.2 - - - - - - -
13/05:30am 29.7 WSW 4 9 1007.3 - 0.2 - - - - - - -
13/05:00am 29.5 WSW 5 11 1007.1 - 0.2 - - - - - - -
13/04:30am 29.4 SW 5 8 1006.9 - 0.2 - - - - - - -
13/04:00am 29.7 WSW 4 7 1006.6 - 0.2 - - - - - - -
13/03:30am 29.8 WSW 4 8 1006.7 - 0.2 - - - - - - -
13/03:00am 29.8 WSW 4 9 1006.9 - 0.2 - - - - - - -
13/02:30am 29.8 WSW 4 7 1007.0 - 0.2 - - - - - - -
13/02:00am 29.7 W 3 6 1007.5 - 0.2 - - - - - - -
13/01:30am 29.4 WSW 4 7 1007.8 - 0.2 - - - - - - -
13/01:00am 29.4 WSW 4 8 1008.2 - 0.2 - - - - - - -
13/12:30am 29.5 W 3 5 1008.5 - 0.2 - - - - - - -
13/12:00am 29.7 W 5 9 1008.7 - 0.2 - - - - - - -
 
Date/Time
CST
Temp

°C
Wind Pressure Rain
since 9am
mm
Weather Cloud Vis
km
Sea
Height
m
Swell
Dir
 
Speed
knots
Gust
knots
hPa Trend Height
m
Period
s
Dir
12/11:30pm 29.6 W 5 10 1008.9 - 0.2 - - - - - - -
12/11:00pm 29.5 W 4 7 1008.9 - 0.2 - - - - - - -
12/10:30pm 29.3 W 4 7 1008.7 - 0.2 - - - - - - -
12/10:00pm 29.4 W 4 7 1008.6 - 0.2 - - - - - - -
12/09:30pm 29.6 W 5 8 1008.6 - 0.2 - - - - - - -
12/09:00pm 29.7 WNW 7 10 1008.3 - 0.2 - - - - - - -
12/08:30pm 29.6 W 4 6 1007.8 - 0.2 - - - - - - -
12/08:00pm 29.6 W 4 6 1007.3 - 0.2 - - - - - - -
12/07:30pm 29.6 WNW 4 8 1006.7 - 0.2 - - - - - - -
12/07:00pm 29.6 SW 2 3 1006.6 - 0.2 - - - - - - -
12/06:30pm 29.8 WSW 3 5 1006.5 - 0.2 - - - - - - -
12/06:00pm 30.0 W 2 4 1006.2 - 0.2 - - - - - - -
12/05:30pm 30.1 W 3 6 1005.9 - 0.2 - - - - - - -
12/05:00pm 30.4 WNW 5 9 1005.7 - 0.2 - - - - - - -
12/04:30pm 30.7 W 4 7 1005.7 - 0.2 - - - - - - -
12/04:00pm 30.4 W 5 8 1005.8 - 0.2 - - - - - - -
12/03:30pm 30.3 WNW 6 7 1006.1 - 0.2 - - - - - - -
12/03:00pm 30.3 WNW 7 10 1006.2 - 0.2 - - - - - - -
12/02:30pm 30.5 WNW 6 8 1006.7 - 0.2 - - - - - - -
12/02:00pm 30.4 WNW 6 11 1007.0 - 0.2 - - - - - - -
12/01:30pm 31.1 WNW 10 13 1007.2 - 0.2 - - - - - - -
12/01:00pm 32.2 WNW 8 12 1007.3 - 0.2 - - - - - - -
12/12:30pm 31.1 WNW 4 6 1007.8 - 0.2 - - - - - - -
12/12:00pm 30.7 NNW 5 8 1008.4 - 0.2 - - - - - - -
12/11:30am 30.7 NNW 3 4 1008.9 - 0.2 - - - - - - -
12/11:00am 30.6 NNW 3 4 1009.0 - 0.2 - - - - - - -
12/10:30am 30.2 NW 2 4 1009.2 - 0.2 - - - - - - -
12/10:00am 29.6 WNW 3 4 1009.5 - 0.2 - - - - - - -
12/09:30am 29.6 W 1 3 1009.7 - 0.0 - - - - - - -
12/09:00am 29.2 W 3 5 1009.5 - 3.0 - - - - - - -
12/08:30am 27.9 WSW 2 3 1009.4 - 3.0 - - - - - - -
12/08:00am 27.1 SW 2 3 1008.9 - 3.0 - - - - - - -
12/07:30am 26.2 WSW 3 5 1008.4 - 3.0 - - - - - - -
12/07:00am 25.7 SW 2 3 1008.2 - 1.0 - - - - - - -
12/06:30am 27.3 SSW 2 7 1008.1 - 0.4 - - - - - - -
12/06:00am 27.5 S 3 5 1007.5 - 0.0 - - - - - - -
12/05:30am 27.7 SW 2 3 1007.3 - 0.0 - - - - - - -
12/05:00am 28.5 WSW 2 4 1007.0 - 0.0 - - - - - - -

Other Formats:

Comma delimited format used in spreadsheet applications
http://www.bom.gov.au/fwo/IDD60701/IDD60701.99510.axf

JavaScript Object Notation format (JSON) in row-major order
http://www.bom.gov.au/fwo/IDD60701/IDD60701.99510.json